sensor_id;sensor_type;location;lat;lon;timestamp;temperature;humidity
11214;DHT22;5664;48.606;13.456;2023-02-15T00:01:15;18.00;60.80
11214;DHT22;5664;48.606;13.456;2023-02-15T00:03:41;18.00;60.80
11214;DHT22;5664;48.606;13.456;2023-02-15T00:06:06;18.00;60.80
11214;DHT22;5664;48.606;13.456;2023-02-15T00:08:32;17.90;60.70
11214;DHT22;5664;48.606;13.456;2023-02-15T00:11:04;18.00;60.80
11214;DHT22;5664;48.606;13.456;2023-02-15T00:13:30;18.00;60.80
11214;DHT22;5664;48.606;13.456;2023-02-15T00:16:00;17.90;60.70
11214;DHT22;5664;48.606;13.456;2023-02-15T00:18:26;18.00;60.70
11214;DHT22;5664;48.606;13.456;2023-02-15T00:20:51;17.90;60.70
11214;DHT22;5664;48.606;13.456;2023-02-15T00:23:16;17.90;60.70
11214;DHT22;5664;48.606;13.456;2023-02-15T00:25:42;16.70;59.90
11214;DHT22;5664;48.606;13.456;2023-02-15T00:28:07;17.90;60.70
11214;DHT22;5664;48.606;13.456;2023-02-15T00:30:33;17.90;60.70
11214;DHT22;5664;48.606;13.456;2023-02-15T00:32:58;17.90;60.70
11214;DHT22;5664;48.606;13.456;2023-02-15T00:35:24;17.90;60.70
11214;DHT22;5664;48.606;13.456;2023-02-15T00:37:49;17.90;60.70
11214;DHT22;5664;48.606;13.456;2023-02-15T00:40:15;17.90;60.70
11214;DHT22;5664;48.606;13.456;2023-02-15T00:42:40;17.90;60.70
11214;DHT22;5664;48.606;13.456;2023-02-15T00:45:05;17.90;60.70
11214;DHT22;5664;48.606;13.456;2023-02-15T00:47:31;17.90;60.70
11214;DHT22;5664;48.606;13.456;2023-02-15T00:49:57;17.90;60.70
11214;DHT22;5664;48.606;13.456;2023-02-15T00:52:22;17.90;60.70
11214;DHT22;5664;48.606;13.456;2023-02-15T00:54:48;17.90;60.70
11214;DHT22;5664;48.606;13.456;2023-02-15T00:57:13;17.90;60.70
11214;DHT22;5664;48.606;13.456;2023-02-15T00:59:38;17.90;60.70
11214;DHT22;5664;48.606;13.456;2023-02-15T01:02:04;17.80;60.60
11214;DHT22;5664;48.606;13.456;2023-02-15T01:04:29;17.80;60.60
11214;DHT22;5664;48.606;13.456;2023-02-15T01:06:55;17.80;60.60
11214;DHT22;5664;48.606;13.456;2023-02-15T01:09:20;17.80;60.60
11214;DHT22;5664;48.606;13.456;2023-02-15T01:11:46;17.80;60.60
11214;DHT22;5664;48.606;13.456;2023-02-15T01:14:11;17.80;61.00
11214;DHT22;5664;48.606;13.456;2023-02-15T01:16:38;17.80;60.60
11214;DHT22;5664;48.606;13.456;2023-02-15T01:19:04;17.80;60.60
11214;DHT22;5664;48.606;13.456;2023-02-15T01:21:29;17.80;60.60
11214;DHT22;5664;48.606;13.456;2023-02-15T01:23:55;17.80;60.50
11214;DHT22;5664;48.606;13.456;2023-02-15T01:26:20;17.80;60.60
11214;DHT22;5664;48.606;13.456;2023-02-15T01:28:46;17.80;60.60
11214;DHT22;5664;48.606;13.456;2023-02-15T01:31:12;17.80;60.60
11214;DHT22;5664;48.606;13.456;2023-02-15T01:33:38;17.80;60.60
11214;DHT22;5664;48.606;13.456;2023-02-15T01:36:04;17.80;60.60
11214;DHT22;5664;48.606;13.456;2023-02-15T01:38:30;17.80;60.50
11214;DHT22;5664;48.606;13.456;2023-02-15T01:40:55;17.80;60.50
11214;DHT22;5664;48.606;13.456;2023-02-15T01:43:45;17.80;60.50
11214;DHT22;5664;48.606;13.456;2023-02-15T01:46:11;17.80;60.50
11214;DHT22;5664;48.606;13.456;2023-02-15T01:48:39;17.80;60.50
11214;DHT22;5664;48.606;13.456;2023-02-15T01:51:05;17.80;60.50
11214;DHT22;5664;48.606;13.456;2023-02-15T01:53:35;17.80;60.50
11214;DHT22;5664;48.606;13.456;2023-02-15T01:58:59;17.80;60.50
11214;DHT22;5664;48.606;13.456;2023-02-15T02:01:27;17.80;60.50
11214;DHT22;5664;48.606;13.456;2023-02-15T02:06:46;17.80;60.50
11214;DHT22;5664;48.606;13.456;2023-02-15T02:09:12;17.80;60.50
11214;DHT22;5664;48.606;13.456;2023-02-15T02:11:38;17.80;60.50
11214;DHT22;5664;48.606;13.456;2023-02-15T02:14:04;17.70;60.30
11214;DHT22;5664;48.606;13.456;2023-02-15T02:16:34;17.80;60.50
11214;DHT22;5664;48.606;13.456;2023-02-15T02:24:20;17.80;60.40
11214;DHT22;5664;48.606;13.456;2023-02-15T02:34:16;17.70;60.30
11214;DHT22;5664;48.606;13.456;2023-02-15T02:36:49;17.70;60.30
11214;DHT22;5664;48.606;13.456;2023-02-15T02:39:20;17.70;60.30
11214;DHT22;5664;48.606;13.456;2023-02-15T02:44:25;17.70;60.20
11214;DHT22;5664;48.606;13.456;2023-02-15T02:46:53;17.70;60.20
11214;DHT22;5664;48.606;13.456;2023-02-15T02:49:36;17.70;60.30
11214;DHT22;5664;48.606;13.456;2023-02-15T02:52:03;17.70;60.20
11214;DHT22;5664;48.606;13.456;2023-02-15T02:54:29;17.70;60.20
11214;DHT22;5664;48.606;13.456;2023-02-15T02:56:55;17.70;60.20
11214;DHT22;5664;48.606;13.456;2023-02-15T02:59:27;17.70;60.20
11214;DHT22;5664;48.606;13.456;2023-02-15T03:01:59;17.70;60.20
11214;DHT22;5664;48.606;13.456;2023-02-15T03:04:28;17.70;60.20
11214;DHT22;5664;48.606;13.456;2023-02-15T03:06:57;17.70;61.00
11214;DHT22;5664;48.606;13.456;2023-02-15T03:09:29;17.70;60.20
11214;DHT22;5664;48.606;13.456;2023-02-15T03:12:00;17.70;60.10
11214;DHT22;5664;48.606;13.456;2023-02-15T03:14:25;17.70;60.20
11214;DHT22;5664;48.606;13.456;2023-02-15T03:16:51;17.70;60.20
11214;DHT22;5664;48.606;13.456;2023-02-15T03:19:24;17.70;60.10
11214;DHT22;5664;48.606;13.456;2023-02-15T03:21:51;17.70;60.10
11214;DHT22;5664;48.606;13.456;2023-02-15T03:24:40;17.70;60.10
11214;DHT22;5664;48.606;13.456;2023-02-15T03:27:09;17.70;60.10
11214;DHT22;5664;48.606;13.456;2023-02-15T03:29:35;17.70;60.20
11214;DHT22;5664;48.606;13.456;2023-02-15T03:32:03;17.70;60.10
11214;DHT22;5664;48.606;13.456;2023-02-15T03:34:29;17.70;60.10
11214;DHT22;5664;48.606;13.456;2023-02-15T03:37:06;17.70;60.10
11214;DHT22;5664;48.606;13.456;2023-02-15T03:39:38;17.70;60.00
11214;DHT22;5664;48.606;13.456;2023-02-15T03:47:25;17.60;60.00
11214;DHT22;5664;48.606;13.456;2023-02-15T03:49:56;17.70;60.00
11214;DHT22;5664;48.606;13.456;2023-02-15T03:52:23;17.70;60.00
11214;DHT22;5664;48.606;13.456;2023-02-15T03:54:50;17.60;60.00
11214;DHT22;5664;48.606;13.456;2023-02-15T03:57:18;17.60;60.00
11214;DHT22;5664;48.606;13.456;2023-02-15T04:00:04;17.60;60.00
11214;DHT22;5664;48.606;13.456;2023-02-15T04:05:14;17.70;60.00
11214;DHT22;5664;48.606;13.456;2023-02-15T04:07:39;17.60;59.90
11214;DHT22;5664;48.606;13.456;2023-02-15T04:10:05;17.60;59.90
11214;DHT22;5664;48.606;13.456;2023-02-15T04:12:49;17.60;60.00
11214;DHT22;5664;48.606;13.456;2023-02-15T04:15:14;17.60;59.90
11214;DHT22;5664;48.606;13.456;2023-02-15T04:17:58;17.70;60.00
11214;DHT22;5664;48.606;13.456;2023-02-15T04:20:24;17.60;59.90
11214;DHT22;5664;48.606;13.456;2023-02-15T04:23:08;17.70;59.90
11214;DHT22;5664;48.606;13.456;2023-02-15T04:25:52;17.60;59.90
11214;DHT22;5664;48.606;13.456;2023-02-15T04:28:17;17.60;59.90
11214;DHT22;5664;48.606;13.456;2023-02-15T04:30:43;17.60;59.90
11214;DHT22;5664;48.606;13.456;2023-02-15T04:33:08;17.60;59.90
11214;DHT22;5664;48.606;13.456;2023-02-15T04:35:33;17.60;59.90
11214;DHT22;5664;48.606;13.456;2023-02-15T04:37:59;17.60;59.90
11214;DHT22;5664;48.606;13.456;2023-02-15T04:40:24;17.60;59.90
11214;DHT22;5664;48.606;13.456;2023-02-15T04:42:50;17.60;59.90
11214;DHT22;5664;48.606;13.456;2023-02-15T04:45:16;17.60;59.90
11214;DHT22;5664;48.606;13.456;2023-02-15T04:47:42;17.60;59.90
11214;DHT22;5664;48.606;13.456;2023-02-15T04:50:07;17.60;59.90
11214;DHT22;5664;48.606;13.456;2023-02-15T04:52:33;17.60;59.90
11214;DHT22;5664;48.606;13.456;2023-02-15T04:54:58;17.60;59.90
11214;DHT22;5664;48.606;13.456;2023-02-15T04:57:24;17.60;59.90
11214;DHT22;5664;48.606;13.456;2023-02-15T04:59:49;17.60;59.90
11214;DHT22;5664;48.606;13.456;2023-02-15T05:02:15;17.60;59.80
11214;DHT22;5664;48.606;13.456;2023-02-15T05:04:40;17.60;59.90
11214;DHT22;5664;48.606;13.456;2023-02-15T05:07:06;17.60;59.90
11214;DHT22;5664;48.606;13.456;2023-02-15T05:09:31;17.60;59.90
11214;DHT22;5664;48.606;13.456;2023-02-15T05:11:56;17.60;59.90
11214;DHT22;5664;48.606;13.456;2023-02-15T05:14:22;17.60;59.90
11214;DHT22;5664;48.606;13.456;2023-02-15T05:16:47;17.60;59.90
11214;DHT22;5664;48.606;13.456;2023-02-15T05:19:13;17.60;59.90
11214;DHT22;5664;48.606;13.456;2023-02-15T05:21:39;17.60;59.90
11214;DHT22;5664;48.606;13.456;2023-02-15T05:24:05;17.60;59.90
11214;DHT22;5664;48.606;13.456;2023-02-15T05:26:50;17.60;59.90
11214;DHT22;5664;48.606;13.456;2023-02-15T05:29:34;17.60;60.00
11214;DHT22;5664;48.606;13.456;2023-02-15T05:32:00;17.60;60.00
11214;DHT22;5664;48.606;13.456;2023-02-15T05:34:25;17.60;60.00
11214;DHT22;5664;48.606;13.456;2023-02-15T05:36:51;17.60;60.10
11214;DHT22;5664;48.606;13.456;2023-02-15T05:39:16;17.50;60.10
11214;DHT22;5664;48.606;13.456;2023-02-15T05:41:42;17.60;60.10
11214;DHT22;5664;48.606;13.456;2023-02-15T05:44:07;17.50;60.10
11214;DHT22;5664;48.606;13.456;2023-02-15T05:46:33;17.50;60.20
11214;DHT22;5664;48.606;13.456;2023-02-15T05:48:58;17.50;60.20
11214;DHT22;5664;48.606;13.456;2023-02-15T05:51:23;17.50;60.20
11214;DHT22;5664;48.606;13.456;2023-02-15T05:53:49;17.50;60.30
11214;DHT22;5664;48.606;13.456;2023-02-15T05:56:14;17.50;60.30
11214;DHT22;5664;48.606;13.456;2023-02-15T05:58:40;17.50;60.30
11214;DHT22;5664;48.606;13.456;2023-02-15T06:01:13;17.50;60.40
11214;DHT22;5664;48.606;13.456;2023-02-15T06:03:39;17.50;60.40
11214;DHT22;5664;48.606;13.456;2023-02-15T06:06:04;17.50;60.40
11214;DHT22;5664;48.606;13.456;2023-02-15T06:08:30;17.50;60.40
11214;DHT22;5664;48.606;13.456;2023-02-15T06:10:56;17.50;60.50
11214;DHT22;5664;48.606;13.456;2023-02-15T06:13:22;17.50;60.40
11214;DHT22;5664;48.606;13.456;2023-02-15T06:15:47;17.50;60.40
11214;DHT22;5664;48.606;13.456;2023-02-15T06:18:13;17.50;60.40
11214;DHT22;5664;48.606;13.456;2023-02-15T06:20:38;17.40;60.40
11214;DHT22;5664;48.606;13.456;2023-02-15T06:23:03;17.50;60.50
11214;DHT22;5664;48.606;13.456;2023-02-15T06:25:29;17.50;60.50
11214;DHT22;5664;48.606;13.456;2023-02-15T06:27:54;17.50;60.50
11214;DHT22;5664;48.606;13.456;2023-02-15T06:30:20;17.50;60.50
11214;DHT22;5664;48.606;13.456;2023-02-15T06:32:45;17.50;60.50
11214;DHT22;5664;48.606;13.456;2023-02-15T06:35:11;17.50;60.50
11214;DHT22;5664;48.606;13.456;2023-02-15T06:37:37;17.40;60.40
11214;DHT22;5664;48.606;13.456;2023-02-15T06:40:02;17.40;61.20
11214;DHT22;5664;48.606;13.456;2023-02-15T06:42:29;17.40;60.40
11214;DHT22;5664;48.606;13.456;2023-02-15T06:44:55;17.40;60.40
11214;DHT22;5664;48.606;13.456;2023-02-15T06:47:20;17.40;60.40
11214;DHT22;5664;48.606;13.456;2023-02-15T06:49:45;17.40;60.50
11214;DHT22;5664;48.606;13.456;2023-02-15T06:52:11;17.40;60.50
11214;DHT22;5664;48.606;13.456;2023-02-15T06:54:36;17.40;60.40
11214;DHT22;5664;48.606;13.456;2023-02-15T06:57:02;17.40;60.40
11214;DHT22;5664;48.606;13.456;2023-02-15T06:59:27;17.40;60.40
11214;DHT22;5664;48.606;13.456;2023-02-15T07:01:53;17.40;60.40
11214;DHT22;5664;48.606;13.456;2023-02-15T07:04:18;17.40;60.30
11214;DHT22;5664;48.606;13.456;2023-02-15T07:06:44;17.40;60.30
11214;DHT22;5664;48.606;13.456;2023-02-15T07:09:10;17.40;60.30
11214;DHT22;5664;48.606;13.456;2023-02-15T07:11:36;17.40;60.30
11214;DHT22;5664;48.606;13.456;2023-02-15T07:14:20;17.40;60.30
11214;DHT22;5664;48.606;13.456;2023-02-15T07:16:46;17.40;60.30
11214;DHT22;5664;48.606;13.456;2023-02-15T07:19:11;17.30;60.20
11214;DHT22;5664;48.606;13.456;2023-02-15T07:21:37;17.30;60.20
11214;DHT22;5664;48.606;13.456;2023-02-15T07:24:02;17.40;60.30
11214;DHT22;5664;48.606;13.456;2023-02-15T07:26:28;17.30;60.30
11214;DHT22;5664;48.606;13.456;2023-02-15T07:28:54;17.30;60.20
11214;DHT22;5664;48.606;13.456;2023-02-15T07:31:19;17.30;60.20
11214;DHT22;5664;48.606;13.456;2023-02-15T07:33:44;17.40;60.30
11214;DHT22;5664;48.606;13.456;2023-02-15T07:36:10;17.30;60.20
11214;DHT22;5664;48.606;13.456;2023-02-15T07:38:39;17.30;60.20
11214;DHT22;5664;48.606;13.456;2023-02-15T07:41:05;17.30;60.20
11214;DHT22;5664;48.606;13.456;2023-02-15T07:43:32;17.30;60.20
11214;DHT22;5664;48.606;13.456;2023-02-15T07:45:59;17.30;60.20
11214;DHT22;5664;48.606;13.456;2023-02-15T07:48:24;17.30;60.20
11214;DHT22;5664;48.606;13.456;2023-02-15T07:50:50;17.30;60.20
11214;DHT22;5664;48.606;13.456;2023-02-15T07:53:15;17.30;60.20
11214;DHT22;5664;48.606;13.456;2023-02-15T07:55:41;17.30;60.20
11214;DHT22;5664;48.606;13.456;2023-02-15T07:58:06;17.30;60.20
11214;DHT22;5664;48.606;13.456;2023-02-15T08:00:32;17.20;60.20
11214;DHT22;5664;48.606;13.456;2023-02-15T08:03:17;17.30;60.20
11214;DHT22;5664;48.606;13.456;2023-02-15T08:05:44;17.30;60.20
11214;DHT22;5664;48.606;13.456;2023-02-15T08:08:09;17.30;60.20
11214;DHT22;5664;48.606;13.456;2023-02-15T08:10:56;17.20;60.20
11214;DHT22;5664;48.606;13.456;2023-02-15T08:13:42;17.20;60.20
11214;DHT22;5664;48.606;13.456;2023-02-15T08:16:22;17.20;60.20
11214;DHT22;5664;48.606;13.456;2023-02-15T08:18:48;17.20;60.20
11214;DHT22;5664;48.606;13.456;2023-02-15T08:21:13;17.20;60.20
11214;DHT22;5664;48.606;13.456;2023-02-15T08:23:39;17.20;60.20
11214;DHT22;5664;48.606;13.456;2023-02-15T08:26:04;17.20;60.20
11214;DHT22;5664;48.606;13.456;2023-02-15T08:28:30;17.20;60.20
11214;DHT22;5664;48.606;13.456;2023-02-15T08:31:03;17.20;60.20
11214;DHT22;5664;48.606;13.456;2023-02-15T08:33:29;17.20;60.20
11214;DHT22;5664;48.606;13.456;2023-02-15T08:35:54;17.20;60.20
11214;DHT22;5664;48.606;13.456;2023-02-15T08:38:20;17.20;60.30
11214;DHT22;5664;48.606;13.456;2023-02-15T08:40:45;17.20;60.20
11214;DHT22;5664;48.606;13.456;2023-02-15T08:43:11;17.20;60.20
11214;DHT22;5664;48.606;13.456;2023-02-15T08:45:37;17.20;60.20
11214;DHT22;5664;48.606;13.456;2023-02-15T08:48:03;17.20;60.20
11214;DHT22;5664;48.606;13.456;2023-02-15T08:50:29;17.20;60.30
11214;DHT22;5664;48.606;13.456;2023-02-15T08:52:55;17.20;60.30
11214;DHT22;5664;48.606;13.456;2023-02-15T08:55:20;17.20;60.30
11214;DHT22;5664;48.606;13.456;2023-02-15T08:57:46;17.20;60.30
11214;DHT22;5664;48.606;13.456;2023-02-15T09:00:12;17.10;60.30
11214;DHT22;5664;48.606;13.456;2023-02-15T09:02:37;17.10;60.30
11214;DHT22;5664;48.606;13.456;2023-02-15T09:05:03;17.10;60.30
11214;DHT22;5664;48.606;13.456;2023-02-15T09:07:29;17.10;60.30
11214;DHT22;5664;48.606;13.456;2023-02-15T09:09:54;17.10;60.30
11214;DHT22;5664;48.606;13.456;2023-02-15T09:12:22;17.20;60.40
11214;DHT22;5664;48.606;13.456;2023-02-15T09:14:47;17.10;60.40
11214;DHT22;5664;48.606;13.456;2023-02-15T09:17:12;17.10;60.40
11214;DHT22;5664;48.606;13.456;2023-02-15T09:19:38;17.10;60.30
11214;DHT22;5664;48.606;13.456;2023-02-15T09:22:04;17.10;60.30
11214;DHT22;5664;48.606;13.456;2023-02-15T09:24:31;17.10;60.30
11214;DHT22;5664;48.606;13.456;2023-02-15T09:26:57;17.10;60.30
11214;DHT22;5664;48.606;13.456;2023-02-15T09:29:22;17.10;60.30
11214;DHT22;5664;48.606;13.456;2023-02-15T09:31:49;17.10;60.30
11214;DHT22;5664;48.606;13.456;2023-02-15T09:34:16;17.10;60.30
11214;DHT22;5664;48.606;13.456;2023-02-15T09:36:42;17.10;60.30
11214;DHT22;5664;48.606;13.456;2023-02-15T09:39:12;17.10;60.30
11214;DHT22;5664;48.606;13.456;2023-02-15T09:47:13;17.10;60.40
11214;DHT22;5664;48.606;13.456;2023-02-15T09:52:34;17.10;60.40
11214;DHT22;5664;48.606;13.456;2023-02-15T09:58:14;17.10;59.90
11214;DHT22;5664;48.606;13.456;2023-02-15T10:06:05;17.10;59.40
11214;DHT22;5664;48.606;13.456;2023-02-15T10:16:56;17.10;59.10
11214;DHT22;5664;48.606;13.456;2023-02-15T10:22:21;17.20;59.10
11214;DHT22;5664;48.606;13.456;2023-02-15T10:27:13;17.20;59.00
11214;DHT22;5664;48.606;13.456;2023-02-15T10:34:47;17.20;58.80
11214;DHT22;5664;48.606;13.456;2023-02-15T10:39:47;17.20;58.80
11214;DHT22;5664;48.606;13.456;2023-02-15T10:42:18;17.20;58.70
11214;DHT22;5664;48.606;13.456;2023-02-15T10:47:21;17.20;58.70
11214;DHT22;5664;48.606;13.456;2023-02-15T10:52:25;17.20;58.70
11214;DHT22;5664;48.606;13.456;2023-02-15T10:55:06;17.20;58.70
11214;DHT22;5664;48.606;13.456;2023-02-15T10:57:40;17.20;58.70
11214;DHT22;5664;48.606;13.456;2023-02-15T11:00:13;17.20;58.70
11214;DHT22;5664;48.606;13.456;2023-02-15T11:07:50;17.20;58.90
11214;DHT22;5664;48.606;13.456;2023-02-15T11:10:32;17.20;58.80
11214;DHT22;5664;48.606;13.456;2023-02-15T11:13:02;17.20;58.90
11214;DHT22;5664;48.606;13.456;2023-02-15T11:15:34;17.20;58.80
11214;DHT22;5664;48.606;13.456;2023-02-15T11:18:04;17.20;58.80
11214;DHT22;5664;48.606;13.456;2023-02-15T11:20:31;17.20;58.80
11214;DHT22;5664;48.606;13.456;2023-02-15T11:22:58;17.20;58.80
11214;DHT22;5664;48.606;13.456;2023-02-15T11:25:28;17.20;58.80
11214;DHT22;5664;48.606;13.456;2023-02-15T11:27:55;17.20;58.90
11214;DHT22;5664;48.606;13.456;2023-02-15T11:30:25;17.20;58.90
11214;DHT22;5664;48.606;13.456;2023-02-15T11:32:53;17.20;59.00
11214;DHT22;5664;48.606;13.456;2023-02-15T11:35:24;17.20;59.00
11214;DHT22;5664;48.606;13.456;2023-02-15T11:42:46;17.30;59.20
11214;DHT22;5664;48.606;13.456;2023-02-15T11:47:46;17.20;59.40
11214;DHT22;5664;48.606;13.456;2023-02-15T11:50:16;17.20;59.80
11214;DHT22;5664;48.606;13.456;2023-02-15T11:52:43;17.20;59.70
11214;DHT22;5664;48.606;13.456;2023-02-15T11:55:12;17.20;59.70
11214;DHT22;5664;48.606;13.456;2023-02-15T11:57:41;17.20;59.70
11214;DHT22;5664;48.606;13.456;2023-02-15T12:02:53;17.20;59.50
11214;DHT22;5664;48.606;13.456;2023-02-15T12:05:21;17.20;59.30
11214;DHT22;5664;48.606;13.456;2023-02-15T12:10:57;17.20;59.20
11214;DHT22;5664;48.606;13.456;2023-02-15T12:15:40;17.20;59.10
11214;DHT22;5664;48.606;13.456;2023-02-15T12:18:15;17.20;59.10
11214;DHT22;5664;48.606;13.456;2023-02-15T12:20:42;17.20;59.10
11214;DHT22;5664;48.606;13.456;2023-02-15T12:23:12;17.20;59.10
11214;DHT22;5664;48.606;13.456;2023-02-15T12:25:41;17.20;59.00
11214;DHT22;5664;48.606;13.456;2023-02-15T12:30:56;17.20;58.90
11214;DHT22;5664;48.606;13.456;2023-02-15T12:35:57;17.40;58.70
11214;DHT22;5664;48.606;13.456;2023-02-15T12:38:25;17.40;58.60
11214;DHT22;5664;48.606;13.456;2023-02-15T12:41:01;17.50;58.50
11214;DHT22;5664;48.606;13.456;2023-02-15T12:43:37;17.60;58.30
11214;DHT22;5664;48.606;13.456;2023-02-15T12:48:46;17.70;58.00
11214;DHT22;5664;48.606;13.456;2023-02-15T12:51:13;17.80;58.00
11214;DHT22;5664;48.606;13.456;2023-02-15T12:53:39;17.90;57.80
11214;DHT22;5664;48.606;13.456;2023-02-15T12:56:05;17.90;57.70
11214;DHT22;5664;48.606;13.456;2023-02-15T12:58:32;18.00;57.60
11214;DHT22;5664;48.606;13.456;2023-02-15T13:03:50;18.20;57.40
11214;DHT22;5664;48.606;13.456;2023-02-15T13:06:19;18.20;57.30
11214;DHT22;5664;48.606;13.456;2023-02-15T13:08:46;18.30;57.20
11214;DHT22;5664;48.606;13.456;2023-02-15T13:11:13;18.30;57.10
11214;DHT22;5664;48.606;13.456;2023-02-15T13:14:02;18.30;56.90
11214;DHT22;5664;48.606;13.456;2023-02-15T13:16:34;18.40;56.90
11214;DHT22;5664;48.606;13.456;2023-02-15T13:19:18;18.40;56.80
11214;DHT22;5664;48.606;13.456;2023-02-15T13:21:45;18.50;56.80
11214;DHT22;5664;48.606;13.456;2023-02-15T13:24:15;18.40;56.60
11214;DHT22;5664;48.606;13.456;2023-02-15T13:26:42;18.50;56.60
11214;DHT22;5664;48.606;13.456;2023-02-15T13:29:15;18.50;56.60
11214;DHT22;5664;48.606;13.456;2023-02-15T13:31:42;18.60;56.70
11214;DHT22;5664;48.606;13.456;2023-02-15T13:34:12;18.50;56.60
11214;DHT22;5664;48.606;13.456;2023-02-15T13:36:43;18.60;56.60
11214;DHT22;5664;48.606;13.456;2023-02-15T13:55:02;18.50;56.70
11214;DHT22;5664;48.606;13.456;2023-02-15T13:57:38;18.50;56.60
11214;DHT22;5664;48.606;13.456;2023-02-15T14:00:16;18.50;56.60
11214;DHT22;5664;48.606;13.456;2023-02-15T14:02:59;18.50;56.70
11214;DHT22;5664;48.606;13.456;2023-02-15T14:11:05;18.50;56.80
11214;DHT22;5664;48.606;13.456;2023-02-15T14:18:46;18.40;57.00
11214;DHT22;5664;48.606;13.456;2023-02-15T14:21:10;18.40;57.00
11214;DHT22;5664;48.606;13.456;2023-02-15T14:31:29;18.40;57.30
11214;DHT22;5664;48.606;13.456;2023-02-15T14:33:56;18.40;57.30
11214;DHT22;5664;48.606;13.456;2023-02-15T14:36:22;18.40;57.40
11214;DHT22;5664;48.606;13.456;2023-02-15T14:41:18;18.30;57.40
11214;DHT22;5664;48.606;13.456;2023-02-15T14:48:56;18.30;57.60
11214;DHT22;5664;48.606;13.456;2023-02-15T14:54:10;18.30;57.80
11214;DHT22;5664;48.606;13.456;2023-02-15T14:56:36;18.20;57.80
11214;DHT22;5664;48.606;13.456;2023-02-15T15:01:39;18.30;57.90
11214;DHT22;5664;48.606;13.456;2023-02-15T15:04:06;18.30;58.00
11214;DHT22;5664;48.606;13.456;2023-02-15T15:06:34;18.30;58.00
11214;DHT22;5664;48.606;13.456;2023-02-15T15:09:09;18.20;58.00
11214;DHT22;5664;48.606;13.456;2023-02-15T15:11:40;18.20;58.00
11214;DHT22;5664;48.606;13.456;2023-02-15T15:14:06;18.20;58.00
11214;DHT22;5664;48.606;13.456;2023-02-15T15:19:01;18.20;58.00
11214;DHT22;5664;48.606;13.456;2023-02-15T15:24:34;18.20;57.80
11214;DHT22;5664;48.606;13.456;2023-02-15T15:29:40;18.20;58.10
11214;DHT22;5664;48.606;13.456;2023-02-15T15:32:06;18.20;58.30
11214;DHT22;5664;48.606;13.456;2023-02-15T15:34:41;18.20;58.60
11214;DHT22;5664;48.606;13.456;2023-02-15T15:37:23;18.20;58.80
11214;DHT22;5664;48.606;13.456;2023-02-15T15:39:57;18.20;58.90
11214;DHT22;5664;48.606;13.456;2023-02-15T15:45:32;18.20;59.10
11214;DHT22;5664;48.606;13.456;2023-02-15T15:50:45;18.20;59.30
11214;DHT22;5664;48.606;13.456;2023-02-15T15:53:16;18.20;59.40
11214;DHT22;5664;48.606;13.456;2023-02-15T15:55:43;18.10;59.40
11214;DHT22;5664;48.606;13.456;2023-02-15T15:58:12;18.10;59.50
11214;DHT22;5664;48.606;13.456;2023-02-15T16:00:42;18.10;59.50
11214;DHT22;5664;48.606;13.456;2023-02-15T16:05:41;18.00;59.50
11214;DHT22;5664;48.606;13.456;2023-02-15T16:08:06;18.00;59.60
11214;DHT22;5664;48.606;13.456;2023-02-15T16:10:32;18.00;59.70
11214;DHT22;5664;48.606;13.456;2023-02-15T16:12:59;18.00;59.80
11214;DHT22;5664;48.606;13.456;2023-02-15T16:15:26;18.00;59.90
11214;DHT22;5664;48.606;13.456;2023-02-15T16:17:56;17.90;59.90
11214;DHT22;5664;48.606;13.456;2023-02-15T16:20:27;18.00;60.00
11214;DHT22;5664;48.606;13.456;2023-02-15T16:22:54;18.00;59.90
11214;DHT22;5664;48.606;13.456;2023-02-15T16:28:07;17.90;60.00
11214;DHT22;5664;48.606;13.456;2023-02-15T16:30:34;17.90;60.00
11214;DHT22;5664;48.606;13.456;2023-02-15T16:33:04;17.90;60.00
11214;DHT22;5664;48.606;13.456;2023-02-15T16:35:31;17.90;60.10
11214;DHT22;5664;48.606;13.456;2023-02-15T16:37:56;17.90;60.10
11214;DHT22;5664;48.606;13.456;2023-02-15T16:42:47;17.90;60.20
11214;DHT22;5664;48.606;13.456;2023-02-15T16:45:13;17.80;60.20
11214;DHT22;5664;48.606;13.456;2023-02-15T16:47:41;17.80;60.30
11214;DHT22;5664;48.606;13.456;2023-02-15T16:50:16;17.80;60.30
11214;DHT22;5664;48.606;13.456;2023-02-15T16:52:42;17.80;60.40
11214;DHT22;5664;48.606;13.456;2023-02-15T16:55:18;17.80;60.40
11214;DHT22;5664;48.606;13.456;2023-02-15T16:57:45;17.80;60.40
11214;DHT22;5664;48.606;13.456;2023-02-15T17:00:20;17.80;60.40
11214;DHT22;5664;48.606;13.456;2023-02-15T17:02:58;17.80;60.40
11214;DHT22;5664;48.606;13.456;2023-02-15T17:05:24;17.80;60.40
11214;DHT22;5664;48.606;13.456;2023-02-15T17:10:40;17.80;60.40
11214;DHT22;5664;48.606;13.456;2023-02-15T17:13:25;17.80;60.40
11214;DHT22;5664;48.606;13.456;2023-02-15T17:18:29;17.70;60.40
11214;DHT22;5664;48.606;13.456;2023-02-15T17:20:56;17.70;60.40
11214;DHT22;5664;48.606;13.456;2023-02-15T17:23:25;17.70;60.40
11214;DHT22;5664;48.606;13.456;2023-02-15T17:25:52;17.70;60.40
11214;DHT22;5664;48.606;13.456;2023-02-15T17:28:19;17.70;60.40
11214;DHT22;5664;48.606;13.456;2023-02-15T17:30:44;17.70;60.40
11214;DHT22;5664;48.606;13.456;2023-02-15T17:33:35;17.70;60.50
11214;DHT22;5664;48.606;13.456;2023-02-15T17:36:34;17.70;60.50
11214;DHT22;5664;48.606;13.456;2023-02-15T17:41:23;17.60;60.60
11214;DHT22;5664;48.606;13.456;2023-02-15T17:43:48;17.60;60.60
11214;DHT22;5664;48.606;13.456;2023-02-15T17:46:14;17.60;60.60
11214;DHT22;5664;48.606;13.456;2023-02-15T17:48:41;17.60;60.70
11214;DHT22;5664;48.606;13.456;2023-02-15T17:51:09;17.60;60.70
11214;DHT22;5664;48.606;13.456;2023-02-15T17:53:35;17.60;60.80
11214;DHT22;5664;48.606;13.456;2023-02-15T17:56:01;17.60;61.70
11214;DHT22;5664;48.606;13.456;2023-02-15T17:58:34;17.60;60.90
11214;DHT22;5664;48.606;13.456;2023-02-15T18:01:00;17.60;60.90
11214;DHT22;5664;48.606;13.456;2023-02-15T18:03:48;17.60;60.90
11214;DHT22;5664;48.606;13.456;2023-02-15T18:06:33;17.60;60.90
11214;DHT22;5664;48.606;13.456;2023-02-15T18:09:18;17.60;60.80
11214;DHT22;5664;48.606;13.456;2023-02-15T18:12:05;17.60;60.80
11214;DHT22;5664;48.606;13.456;2023-02-15T18:14:39;17.60;60.70
11214;DHT22;5664;48.606;13.456;2023-02-15T18:17:05;17.50;60.60
11214;DHT22;5664;48.606;13.456;2023-02-15T18:19:34;17.60;60.70
11214;DHT22;5664;48.606;13.456;2023-02-15T18:22:00;17.60;60.60
11214;DHT22;5664;48.606;13.456;2023-02-15T18:24:26;17.50;60.60
11214;DHT22;5664;48.606;13.456;2023-02-15T18:26:52;17.60;60.60
11214;DHT22;5664;48.606;13.456;2023-02-15T18:29:18;17.50;60.60
11214;DHT22;5664;48.606;13.456;2023-02-15T18:31:44;17.50;60.60
11214;DHT22;5664;48.606;13.456;2023-02-15T18:34:31;17.50;60.60
11214;DHT22;5664;48.606;13.456;2023-02-15T18:36:55;17.50;60.50
11214;DHT22;5664;48.606;13.456;2023-02-15T18:42:04;17.50;60.60